Time;durP1;ratioP1;P1;durP2;ratioP2;P2;SDS_P1;SDS_P2;PMS_P1;PMS_P2;Temp;Humidity;BMP_temperature;BMP_pressure;BME280_temperature;BME280_humidity;BME280_pressure;Samples;Min_cycle;Max_cycle;Signal;HPM_P1;HPM_P2
2021/06/17 00:01:42;;;;;;;6.35;5.57;;;20.10;91.60;;;;;;5054651;28;20040;-66
2021/06/17 00:04:08;;;;;;;5.55;4.63;;;20.10;91.60;;;;;;5054537;28;20021;-66
2021/06/17 00:06:34;;;;;;;5.22;4.32;;;20.10;91.40;;;;;;5054466;28;20021;-66
2021/06/17 00:09:00;;;;;;;5.10;4.53;;;20.10;91.40;;;;;;5064950;28;20073;-66
2021/06/17 00:11:26;;;;;;;4.30;3.90;;;20.10;91.30;;;;;;5069798;28;20029;-66
2021/06/17 00:13:52;;;;;;;7.03;4.55;;;20.10;91.10;;;;;;5053854;28;20455;-66
2021/06/17 00:16:18;;;;;;;5.22;4.72;;;20.10;91.00;;;;;;5054691;28;20033;-66
2021/06/17 00:18:44;;;;;;;5.40;4.38;;;20.10;91.00;;;;;;5053581;28;20608;-66
2021/06/17 00:21:10;;;;;;;4.72;4.07;;;20.20;90.80;;;;;;5052212;28;20385;-66
2021/06/17 00:23:36;;;;;;;4.78;4.25;;;20.20;90.80;;;;;;5053583;28;20021;-66
2021/06/17 00:26:04;;;;;;;5.50;4.70;;;20.20;90.70;;;;;;5054700;28;20033;-66
2021/06/17 00:28:30;;;;;;;5.43;4.75;;;20.20;90.70;;;;;;5069540;28;20079;-67
2021/06/17 00:30:57;;;;;;;5.88;4.40;;;20.20;90.70;;;;;;5053176;28;20028;-66
2021/06/17 00:33:26;;;;;;;4.68;4.18;;;20.30;90.60;;;;;;5052790;28;20037;-66
2021/06/17 00:35:52;;;;;;;5.43;4.32;;;20.30;90.60;;;;;;5052759;28;20040;-66
2021/06/17 00:38:18;;;;;;;5.15;4.20;;;20.30;90.60;;;;;;5053971;28;20028;-66
2021/06/17 00:40:45;;;;;;;4.47;4.05;;;20.30;90.50;;;;;;5052160;28;20384;-66
2021/06/17 00:43:11;;;;;;;4.68;4.22;;;20.30;90.50;;;;;;5068300;28;20124;-66
2021/06/17 00:45:43;;;;;;;5.80;4.13;;;20.20;90.50;;;;;;5074162;28;20052;-66
2021/06/17 00:48:11;;;;;;;5.70;4.85;;;20.20;90.50;;;;;;5073754;28;20021;-66
2021/06/17 00:50:43;;;;;;;4.97;4.40;;;20.20;90.40;;;;;;5073541;28;20166;-66
2021/06/17 00:53:11;;;;;;;4.85;4.05;;;20.20;90.40;;;;;;5072176;28;20399;-66
2021/06/17 00:55:38;;;;;;;8.00;5.57;;;20.20;90.40;;;;;;5051837;28;20032;-66
2021/06/17 00:58:04;;;;;;;5.15;4.65;;;20.20;90.40;;;;;;5052824;28;20029;-66
2021/06/17 01:00:30;;;;;;;5.85;4.40;;;20.10;90.30;;;;;;5070546;28;20093;-66
2021/06/17 01:02:55;;;;;;;6.22;4.57;;;20.10;90.30;;;;;;5067102;28;20025;-66
2021/06/17 01:05:23;;;;;;;5.97;4.78;;;20.10;90.30;;;;;;5073506;28;20035;-66
2021/06/17 01:08:04;;;;;;;8.18;4.93;;;20.10;90.40;;;;;;5060966;28;20116;-66
2021/06/17 01:10:51;;;;;;;5.38;4.65;;;20.10;90.40;;;;;;5052837;28;20137;-66
2021/06/17 01:13:42;;;;;;;5.07;4.28;;;20.10;90.50;;;;;;5052446;28;20054;-66
2021/06/17 01:16:37;;;;;;;5.82;4.75;;;20.10;90.60;;;;;;5053951;28;20024;-66
2021/06/17 01:19:15;;;;;;;5.55;4.30;;;20.10;90.50;;;;;;5053109;28;20496;-66
2021/06/17 01:21:52;;;;;;;6.65;4.80;;;20.00;90.80;;;;;;5053192;28;20115;-66
2021/06/17 01:24:39;;;;;;;5.18;4.68;;;20.00;90.50;;;;;;5042094;28;20043;-66
2021/06/17 01:27:20;;;;;;;4.82;4.40;;;20.00;90.50;;;;;;5049220;28;20044;-66
2021/06/17 01:29:54;;;;;;;6.38;5.32;;;20.10;90.60;;;;;;5051886;28;20037;-66
2021/06/17 01:32:23;;;;;;;6.45;4.63;;;20.00;90.60;;;;;;5053176;28;20025;-66
2021/06/17 01:34:51;;;;;;;5.07;4.25;;;20.00;90.60;;;;;;5071381;28;20032;-66
2021/06/17 01:37:19;;;;;;;5.68;5.07;;;20.00;90.60;;;;;;5073060;28;20023;-66
2021/06/17 01:39:46;;;;;;;6.10;5.15;;;20.00;90.60;;;;;;5063402;28;20036;-66
2021/06/17 01:42:12;;;;;;;6.63;4.43;;;20.00;90.60;;;;;;5052930;28;20106;-66
2021/06/17 01:44:38;;;;;;;5.65;5.15;;;20.00;90.60;;;;;;5052885;28;20021;-66
2021/06/17 01:47:05;;;;;;;8.55;5.07;;;20.00;90.60;;;;;;5053100;28;20052;-66
2021/06/17 01:49:34;;;;;;;5.30;4.80;;;19.90;90.70;;;;;;5053626;28;20442;-66
2021/06/17 01:52:01;;;;;;;5.18;4.68;;;19.90;90.70;;;;;;5055614;28;20021;-66
2021/06/17 01:54:28;;;;;;;6.15;5.43;;;19.90;90.70;;;;;;5052919;28;20032;-66
2021/06/17 01:56:56;;;;;;;4.95;4.43;;;19.90;90.80;;;;;;5053058;28;20092;-66
2021/06/17 01:59:24;;;;;;;5.40;4.90;;;19.90;90.80;;;;;;5052838;28;20139;-66
2021/06/17 02:01:56;;;;;;;5.72;4.55;;;19.90;90.70;;;;;;5052573;28;20322;-66
2021/06/17 02:04:23;;;;;;;5.35;4.80;;;20.00;90.70;;;;;;5052346;28;20053;-66
2021/06/17 02:06:49;;;;;;;5.40;4.90;;;20.00;90.70;;;;;;5054983;28;20027;-66
2021/06/17 02:09:16;;;;;;;5.43;4.68;;;20.00;90.70;;;;;;5067252;28;20479;-66
2021/06/17 02:11:42;;;;;;;5.00;4.53;;;20.00;90.60;;;;;;5052712;28;20064;-66
2021/06/17 02:14:10;;;;;;;5.30;4.35;;;20.00;90.60;;;;;;5052591;28;20056;-66
2021/06/17 02:16:40;;;;;;;5.40;4.38;;;20.10;90.40;;;;;;5052541;28;20049;-66
2021/06/17 02:19:08;;;;;;;5.55;4.88;;;20.00;90.30;;;;;;5052445;28;20036;-66
2021/06/17 02:21:34;;;;;;;5.18;4.55;;;20.10;90.40;;;;;;5051224;28;20388;-66
2021/06/17 02:24:03;;;;;;;5.10;4.60;;;20.10;90.30;;;;;;5050796;28;20052;-66
2021/06/17 02:26:31;;;;;;;5.45;4.47;;;20.10;90.40;;;;;;5052101;28;20024;-66
2021/06/17 02:29:00;;;;;;;5.35;4.85;;;20.10;90.30;;;;;;5052390;28;20028;-66
2021/06/17 02:31:31;;;;;;;5.95;4.97;;;20.20;90.30;;;;;;5052065;28;20469;-66
2021/06/17 02:33:57;;;;;;;5.93;4.32;;;20.20;90.30;;;;;;5052397;28;20077;-66
2021/06/17 02:36:26;;;;;;;5.30;4.53;;;20.20;90.30;;;;;;5048094;28;20039;-66
2021/06/17 02:39:02;;;;;;;5.05;4.60;;;20.30;90.40;;;;;;5049797;28;20036;-66
2021/06/17 02:41:29;;;;;;;4.82;4.32;;;20.30;90.20;;;;;;5051174;28;20517;-66
2021/06/17 02:43:57;;;;;;;7.38;5.63;;;20.30;90.20;;;;;;5051646;28;20332;-66
2021/06/17 02:46:23;;;;;;;5.20;4.70;;;20.40;90.30;;;;;;5054254;28;20100;-66
2021/06/17 02:48:54;;;;;;;5.07;4.57;;;20.40;90.10;;;;;;5056057;28;20021;-66
2021/06/17 02:51:21;;;;;;;5.28;4.70;;;20.50;90.00;;;;;;5054491;28;20381;-66
2021/06/17 02:53:47;;;;;;;5.63;4.45;;;20.50;89.90;;;;;;5070749;28;20074;-66
2021/06/17 02:56:27;;;;;;;4.97;4.47;;;20.50;89.60;;;;;;5055963;28;20071;-66
2021/06/17 02:59:43;;;;;;;4.90;4.38;;;20.60;89.50;;;;;;5067771;28;20073;-66
2021/06/17 03:02:18;;;;;;;5.90;4.70;;;20.70;89.50;;;;;;5067376;28;20040;-66
2021/06/17 03:04:54;;;;;;;5.15;4.40;;;20.70;89.40;;;;;;5075344;28;20023;-66
2021/06/17 03:07:33;;;;;;;5.25;4.45;;;20.80;89.50;;;;;;5062352;28;20377;-66
2021/06/17 03:10:06;;;;;;;5.28;4.47;;;20.90;89.50;;;;;;5054216;28;20120;-66
2021/06/17 03:12:33;;;;;;;5.47;4.05;;;21.00;89.00;;;;;;5054552;28;20403;-67
2021/06/17 03:15:04;;;;;;;4.97;4.40;;;21.00;88.90;;;;;;5060026;28;20059;-67
2021/06/17 03:17:30;;;;;;;;;;;21.10;88.90;;;;;;5075987;28;20060;-66
2021/06/17 03:19:56;;;;;;;6.13;4.70;;;21.10;88.80;;;;;;5067208;28;19921;-66
2021/06/17 03:22:28;;;;;;;5.85;4.47;;;21.20;89.00;;;;;;5055585;28;20029;-66
2021/06/17 03:24:58;;;;;;;6.07;4.55;;;21.30;88.70;;;;;;5048113;28;20415;-67
2021/06/17 03:27:25;;;;;;;6.90;4.65;;;21.40;88.20;;;;;;5035590;28;20025;-66
2021/06/17 03:29:52;;;;;;;5.22;4.72;;;21.50;88.00;;;;;;5035584;28;20584;-66
2021/06/17 03:32:20;;;;;;;5.00;4.50;;;21.60;88.10;;;;;;5043829;28;20017;-66
2021/06/17 03:34:48;;;;;;;5.97;4.50;;;21.70;88.50;;;;;;5055204;28;20071;-66
2021/06/17 03:37:18;;;;;;;5.57;4.72;;;22.00;89.40;;;;;;5055183;28;20052;-66
2021/06/17 03:39:46;;;;;;;;;;;22.30;88.70;;;;;;5052970;28;20036;-66
2021/06/17 03:42:12;;;;;;;4.93;4.40;;;22.60;87.40;;;;;;5054921;28;19909;-66
2021/06/17 03:44:39;;;;;;;5.15;4.60;;;23.10;87.70;;;;;;5054937;28;20033;-64
2021/06/17 03:47:07;;;;;;;4.90;4.18;;;23.70;85.30;;;;;;5055207;28;20055;-66
2021/06/17 03:49:35;;;;;;;4.53;4.13;;;24.40;83.60;;;;;;5064426;28;20380;-66
2021/06/17 03:52:01;;;;;;;5.25;4.25;;;25.20;80.80;;;;;;5074769;28;20055;-64
2021/06/17 03:54:27;;;;;;;4.75;4.32;;;26.00;78.30;;;;;;5062085;28;20044;-64
2021/06/17 03:57:01;;;;;;;4.38;3.97;;;26.80;75.40;;;;;;5052338;28;20448;-64
2021/06/17 03:59:39;;;;;;;4.18;3.78;;;27.70;74.10;;;;;;5054699;28;20096;-66
2021/06/17 04:02:05;;;;;;;4.25;3.80;;;28.50;71.40;;;;;;5054624;28;20033;-66
2021/06/17 04:04:31;;;;;;;4.03;3.67;;;29.20;68.30;;;;;;5054869;28;20100;-64
2021/06/17 04:07:01;;;;;;;4.10;3.70;;;29.90;66.40;;;;;;5067106;28;20027;-66
2021/06/17 04:09:29;;;;;;;4.00;3.60;;;30.60;64.10;;;;;;5054484;28;20013;-65
2021/06/17 04:12:07;;;;;;;4.00;3.60;;;31.30;62.50;;;;;;5054268;28;20033;-65
2021/06/17 04:14:35;;;;;;;4.00;3.58;;;32.10;61.20;;;;;;5054763;28;20057;-65
2021/06/17 04:17:03;;;;;;;3.45;3.15;;;32.70;59.30;;;;;;5053724;28;20512;-65
2021/06/17 04:19:31;;;;;;;3.88;3.58;;;33.30;58.20;;;;;;5053040;28;20446;-66
2021/06/17 04:22:01;;;;;;;3.58;3.28;;;33.80;56.40;;;;;;5052325;28;20476;-67
2021/06/17 04:24:32;;;;;;;3.58;3.28;;;34.30;55.20;;;;;;5058967;28;20029;-66
2021/06/17 04:26:59;;;;;;;3.47;3.17;;;34.80;54.20;;;;;;5053850;28;20465;-67
2021/06/17 04:29:25;;;;;;;4.65;3.40;;;35.10;53.10;;;;;;5053988;28;20074;-67
2021/06/17 04:31:53;;;;;;;3.13;2.92;;;35.30;52.40;;;;;;5053982;28;20024;-67
2021/06/17 04:34:20;;;;;;;4.05;3.15;;;35.50;51.60;;;;;;5054152;28;20397;-64
2021/06/17 04:36:46;;;;;;;3.75;3.35;;;35.70;51.20;;;;;;5053918;28;20489;-64
2021/06/17 04:39:13;;;;;;;3.85;3.25;;;35.90;50.80;;;;;;5051936;28;20056;-66
2021/06/17 04:41:40;;;;;;;3.22;3.03;;;36.20;50.20;;;;;;5072186;28;20548;-64
2021/06/17 04:44:06;;;;;;;3.33;3.03;;;36.40;49.60;;;;;;5073807;28;20101;-64
2021/06/17 04:46:34;;;;;;;3.50;3.20;;;36.60;50.20;;;;;;5073614;28;20097;-67
2021/06/17 04:49:00;;;;;;;3.38;3.08;;;36.90;48.40;;;;;;5073800;28;20016;-64
2021/06/17 04:51:29;;;;;;;5.50;3.08;;;37.10;48.50;;;;;;5073790;28;20032;-66
2021/06/17 04:53:55;;;;;;;3.55;3.25;;;37.40;47.60;;;;;;5065362;28;20028;-67
2021/06/17 04:56:23;;;;;;;3.30;3.00;;;37.50;47.70;;;;;;5052979;28;20028;-64
2021/06/17 04:58:50;;;;;;;3.40;3.10;;;37.70;47.00;;;;;;5072951;28;20038;-64
2021/06/17 05:01:18;;;;;;;3.50;2.90;;;37.70;47.00;;;;;;5073538;28;20111;-64
2021/06/17 05:03:47;;;;;;;3.15;2.88;;;37.70;46.80;;;;;;5055799;28;20037;-64
2021/06/17 05:06:16;;;;;;;2.85;2.65;;;37.60;46.60;;;;;;5053734;28;20032;-64
2021/06/17 05:11:27;;;;;;;3.65;3.00;;;37.60;46.60;;;;;;5052765;28;20055;-67
2021/06/17 05:13:53;;;;;;;3.28;2.97;;;37.60;46.60;;;;;;5051624;28;20044;-67
2021/06/17 05:16:18;;;;;;;3.88;3.00;;;37.60;46.60;;;;;;5051859;28;20027;-65
2021/06/17 05:18:44;;;;;;;3.50;3.20;;;37.50;45.80;;;;;;5051464;28;20124;-65
2021/06/17 05:21:10;;;;;;;3.28;3.08;;;37.40;46.00;;;;;;5052007;28;20552;-65
2021/06/17 05:23:41;;;;;;;5.30;3.50;;;37.10;46.30;;;;;;5044318;28;20025;-65
2021/06/17 05:26:07;;;;;;;4.13;3.35;;;36.60;46.20;;;;;;5048735;28;20033;-64
2021/06/17 05:28:33;;;;;;;3.70;3.40;;;35.90;47.10;;;;;;5052942;28;20365;-64
2021/06/17 05:31:01;;;;;;;3.40;3.10;;;35.10;47.70;;;;;;5048213;28;20032;-66
2021/06/17 05:33:30;;;;;;;3.75;3.30;;;34.40;48.50;;;;;;5054826;28;20066;-66
2021/06/17 05:35:56;;;;;;;3.50;3.17;;;33.70;49.30;;;;;;5040282;28;20029;-66
2021/06/17 05:38:23;;;;;;;3.70;3.40;;;33.00;50.60;;;;;;5049643;28;20092;-66
2021/06/17 05:40:50;;;;;;;5.00;3.67;;;32.30;51.60;;;;;;5043056;28;20021;-66
2021/06/17 05:43:18;;;;;;;4.28;3.30;;;31.70;52.20;;;;;;5038473;28;20025;-65
2021/06/17 05:45:44;;;;;;;3.90;3.17;;;31.20;52.90;;;;;;5036643;28;20044;-64
2021/06/17 05:48:09;;;;;;;3.95;3.35;;;30.70;53.40;;;;;;5035588;28;20087;-64
2021/06/17 05:50:35;;;;;;;4.32;3.25;;;30.30;54.10;;;;;;5042583;28;20507;-63
2021/06/17 05:53:01;;;;;;;3.50;3.20;;;29.90;54.50;;;;;;5045015;28;20041;-63
2021/06/17 05:55:27;;;;;;;4.13;3.72;;;29.60;55.80;;;;;;5040010;28;20085;-61
2021/06/17 05:57:52;;;;;;;4.05;3.70;;;29.30;56.50;;;;;;5041720;28;20024;-61
2021/06/17 06:00:18;;;;;;;4.28;3.50;;;29.10;57.30;;;;;;5041718;28;20029;-63
2021/06/17 06:02:44;;;;;;;3.60;3.30;;;28.90;57.90;;;;;;5041795;28;20025;-62
2021/06/17 06:05:10;;;;;;;3.60;3.30;;;28.70;57.60;;;;;;5045478;28;20355;-62
2021/06/17 06:07:38;;;;;;;4.00;3.45;;;28.50;57.60;;;;;;5042320;28;20068;-62
2021/06/17 06:10:08;;;;;;;3.88;3.40;;;28.30;58.30;;;;;;5042452;28;20492;-62
2021/06/17 06:12:34;;;;;;;3.47;3.17;;;28.10;58.80;;;;;;5055596;28;20052;-62
2021/06/17 06:14:59;;;;;;;4.22;3.17;;;28.00;58.80;;;;;;5043307;28;20049;-62
2021/06/17 06:17:25;;;;;;;6.60;3.45;;;27.90;59.20;;;;;;5049048;28;20108;-62
2021/06/17 06:19:51;;;;;;;4.70;3.55;;;27.70;59.40;;;;;;5039282;28;20844;-62
2021/06/17 06:22:18;;;;;;;3.70;3.38;;;27.60;60.00;;;;;;5044076;28;20048;-63
2021/06/17 06:24:43;;;;;;;3.60;3.30;;;27.50;60.90;;;;;;5045845;28;20104;-63
2021/06/17 06:27:10;;;;;;;4.00;3.65;;;27.40;61.30;;;;;;5048197;28;20218;-63
2021/06/17 06:29:35;;;;;;;3.92;3.50;;;27.40;61.50;;;;;;5047177;28;20453;-63
2021/06/17 06:32:02;;;;;;;4.70;3.70;;;27.30;61.10;;;;;;5043534;28;20021;-63
2021/06/17 06:34:28;;;;;;;4.25;3.20;;;27.20;61.40;;;;;;5044383;28;20155;-63
2021/06/17 06:36:54;;;;;;;4.43;3.65;;;27.20;61.70;;;;;;5042024;28;20047;-64
2021/06/17 06:39:20;;;;;;;4.40;3.20;;;27.10;61.90;;;;;;5043086;28;20021;-63
2021/06/17 06:41:46;;;;;;;3.65;3.25;;;27.00;62.00;;;;;;5048539;28;20124;-63
2021/06/17 06:44:13;;;;;;;3.60;3.30;;;27.00;62.00;;;;;;5045229;28;20063;-63
2021/06/17 06:46:40;;;;;;;5.00;3.90;;;26.90;62.50;;;;;;5044885;28;20040;-63
2021/06/17 06:49:06;;;;;;;4.03;3.42;;;26.80;62.80;;;;;;5043676;28;20100;-64
2021/06/17 06:51:35;;;;;;;4.43;3.90;;;26.70;63.50;;;;;;5042749;28;20037;-65
2021/06/17 06:54:02;;;;;;;4.47;3.50;;;26.70;63.80;;;;;;5042460;28;20091;-64
2021/06/17 06:56:27;;;;;;;4.10;3.70;;;26.60;64.20;;;;;;5039593;28;20083;-64
2021/06/17 06:58:53;;;;;;;3.83;3.53;;;26.60;64.60;;;;;;5038584;28;20124;-64
2021/06/17 07:01:19;;;;;;;3.60;3.30;;;26.60;64.90;;;;;;5042663;28;20042;-64
2021/06/17 07:03:45;;;;;;;3.55;3.25;;;26.50;64.80;;;;;;5032638;28;20476;-65
2021/06/17 07:06:11;;;;;;;3.50;3.20;;;26.50;65.00;;;;;;5028528;28;20024;-65
2021/06/17 07:08:37;;;;;;;4.00;3.60;;;26.50;65.30;;;;;;5034218;28;20389;-63
2021/06/17 07:11:03;;;;;;;3.83;3.53;;;26.50;65.30;;;;;;5034166;28;20120;-63
2021/06/17 07:13:29;;;;;;;3.50;3.20;;;26.40;65.10;;;;;;5037397;28;20025;-64
2021/06/17 07:15:55;;;;;;;3.90;3.60;;;26.40;64.90;;;;;;5031945;28;20381;-64
2021/06/17 07:18:20;;;;;;;3.92;3.53;;;26.40;64.80;;;;;;5035004;28;20033;-65
2021/06/17 07:20:46;;;;;;;4.00;3.60;;;26.30;65.40;;;;;;5038397;28;20052;-63
2021/06/17 07:23:12;;;;;;;4.22;3.80;;;26.20;65.60;;;;;;5036277;28;20090;-65
2021/06/17 07:25:37;;;;;;;4.32;3.55;;;26.20;65.90;;;;;;5041413;28;20021;-65
2021/06/17 07:28:03;;;;;;;3.70;3.40;;;26.20;66.20;;;;;;5034806;28;20586;-66
2021/06/17 07:30:29;;;;;;;3.95;3.65;;;26.20;66.30;;;;;;5035696;28;20049;-65
2021/06/17 07:32:55;;;;;;;3.88;3.50;;;26.20;65.90;;;;;;5036499;28;20040;-64
2021/06/17 07:35:21;;;;;;;4.00;3.60;;;26.20;65.70;;;;;;5039055;28;20037;-63
2021/06/17 07:37:46;;;;;;;8.10;3.28;;;26.10;65.50;;;;;;5040342;28;20025;-63
2021/06/17 07:40:13;;;;;;;4.55;3.38;;;26.10;65.60;;;;;;5034277;28;20060;-63
2021/06/17 07:42:40;;;;;;;3.85;3.30;;;26.10;65.70;;;;;;5037639;28;20457;-65
2021/06/17 07:45:08;;;;;;;3.53;3.22;;;26.10;65.40;;;;;;5037828;28;20139;-64
2021/06/17 07:47:34;;;;;;;3.65;3.35;;;26.10;65.60;;;;;;5036140;28;20449;-65
2021/06/17 07:50:00;;;;;;;3.80;3.50;;;26.00;65.80;;;;;;5033431;28;20090;-66
2021/06/17 07:52:25;;;;;;;3.85;3.55;;;26.00;66.00;;;;;;5033147;28;20029;-63
2021/06/17 07:54:51;;;;;;;3.78;3.42;;;25.90;66.20;;;;;;5030894;28;20026;-63
2021/06/17 07:57:17;;;;;;;4.05;3.65;;;25.90;66.50;;;;;;5029795;28;20037;-64
2021/06/17 07:59:43;;;;;;;4.10;3.70;;;25.90;66.90;;;;;;5024662;28;20029;-64
2021/06/17 08:02:08;;;;;;;4.07;3.67;;;26.00;67.20;;;;;;5023635;28;20063;-63
2021/06/17 08:04:34;;;;;;;4.57;3.40;;;26.00;67.00;;;;;;5035501;28;20056;-65
2021/06/17 08:07:00;;;;;;;4.15;3.63;;;25.90;67.00;;;;;;5031724;28;20588;-65
2021/06/17 08:09:26;;;;;;;3.90;3.60;;;25.90;66.70;;;;;;5028300;28;20030;-64
2021/06/17 08:11:52;;;;;;;4.18;3.70;;;25.90;66.70;;;;;;5026015;28;20037;-64
2021/06/17 08:14:25;;;;;;;4.78;4.05;;;25.90;66.80;;;;;;5030501;28;20469;-63
2021/06/17 08:16:53;;;;;;;4.38;3.97;;;25.90;66.90;;;;;;5029243;28;20151;-63
2021/06/17 08:19:25;;;;;;;5.00;3.70;;;25.90;67.20;;;;;;5030841;28;20041;-65
2021/06/17 08:21:51;;;;;;;3.97;3.58;;;25.90;67.90;;;;;;5028319;28;20052;-64
2021/06/17 08:24:17;;;;;;;5.75;3.50;;;25.90;67.90;;;;;;5030805;28;20021;-64
2021/06/17 08:26:43;;;;;;;5.75;4.22;;;25.90;67.40;;;;;;5047650;28;20029;-64
2021/06/17 08:29:09;;;;;;;4.50;4.10;;;25.90;67.20;;;;;;5029842;28;20036;-65
2021/06/17 08:31:36;;;;;;;5.30;3.97;;;25.90;67.50;;;;;;5036962;28;20444;-64
2021/06/17 08:34:03;;;;;;;4.70;4.22;;;25.90;67.50;;;;;;5032963;28;20029;-64
2021/06/17 08:36:28;;;;;;;5.00;4.50;;;25.90;67.70;;;;;;5035193;28;20128;-64
2021/06/17 08:38:54;;;;;;;4.50;4.10;;;25.90;68.20;;;;;;5031883;28;20116;-64
2021/06/17 08:41:20;;;;;;;5.13;3.80;;;25.90;68.20;;;;;;5026975;28;20033;-64
2021/06/17 08:43:46;;;;;;;5.68;4.40;;;25.90;68.10;;;;;;5030140;28;20530;-64
2021/06/17 08:46:11;;;;;;;4.60;4.20;;;25.90;68.10;;;;;;5029550;28;20029;-64
2021/06/17 08:48:39;;;;;;;5.00;4.50;;;25.90;68.20;;;;;;5031815;28;20029;-64
2021/06/17 08:51:05;;;;;;;5.43;4.88;;;25.90;68.10;;;;;;5029406;28;20029;-63
2021/06/17 08:53:31;;;;;;;5.57;4.30;;;25.90;68.60;;;;;;5025982;28;20060;-64
2021/06/17 08:55:56;;;;;;;4.75;4.18;;;25.90;69.00;;;;;;5027542;28;20116;-64
2021/06/17 08:58:22;;;;;;;5.55;4.50;;;25.90;69.00;;;;;;5028200;28;20159;-63
2021/06/17 09:00:50;;;;;;;4.93;4.45;;;25.90;69.00;;;;;;5028438;28;21734;-63
2021/06/17 09:03:18;;;;;;;5.20;4.53;;;25.80;69.00;;;;;;5012360;28;20064;-64
2021/06/17 09:05:55;;;;;;;5.00;4.32;;;25.80;68.90;;;;;;5028225;28;20371;-64
2021/06/17 09:08:24;;;;;;;5.15;4.68;;;25.80;69.40;;;;;;5029996;28;20030;-63
2021/06/17 09:10:49;;;;;;;4.85;4.40;;;25.80;69.70;;;;;;5028305;28;20038;-63
2021/06/17 09:13:15;;;;;;;5.03;4.60;;;25.80;69.90;;;;;;5019335;28;20030;-64
2021/06/17 09:15:53;;;;;;;5.35;4.80;;;25.70;69.90;;;;;;5019695;28;20049;-64
2021/06/17 09:18:25;;;;;;;5.30;4.40;;;25.70;69.80;;;;;;5018925;28;20405;-64
2021/06/17 09:21:04;;;;;;;4.47;4.07;;;25.70;69.80;;;;;;5019230;28;20049;-64
2021/06/17 09:23:36;;;;;;;5.68;4.80;;;25.70;69.40;;;;;;5037842;28;20083;-63
2021/06/17 09:26:17;;;;;;;5.82;4.60;;;25.70;69.40;;;;;;5026833;28;20033;-63
2021/06/17 09:29:09;;;;;;;4.93;4.50;;;25.70;69.20;;;;;;5024595;28;20025;-63
2021/06/17 09:31:41;;;;;;;7.30;4.97;;;25.70;69.40;;;;;;5026947;28;20043;-63
2021/06/17 09:34:10;;;;;;;6.78;4.97;;;25.70;69.40;;;;;;5027394;28;20033;-65
2021/06/17 09:36:38;;;;;;;5.82;5.22;;;25.70;69.30;;;;;;5024002;28;20583;-63
2021/06/17 09:39:04;;;;;;;5.13;4.63;;;25.70;69.60;;;;;;5025866;28;21828;-64
2021/06/17 09:41:36;;;;;;;5.35;4.85;;;25.70;69.60;;;;;;5028078;28;20119;-63
2021/06/17 09:44:03;;;;;;;5.10;4.63;;;25.70;69.50;;;;;;5026012;28;20086;-63
2021/06/17 09:46:29;;;;;;;5.78;5.28;;;25.70;69.40;;;;;;5024454;28;20021;-63
2021/06/17 09:49:04;;;;;;;5.93;4.97;;;25.70;69.60;;;;;;5023718;28;20733;-64
2021/06/17 09:51:44;;;;;;;6.95;5.13;;;25.70;69.60;;;;;;5026812;28;20477;-63
2021/06/17 09:54:21;;;;;;;5.87;5.00;;;25.80;69.20;;;;;;5025200;28;20036;-63
2021/06/17 09:57:00;;;;;;;5.00;4.53;;;25.80;69.10;;;;;;5030725;28;20132;-64
2021/06/17 09:59:31;;;;;;;6.22;5.63;;;25.80;69.30;;;;;;5029298;28;20568;-63
2021/06/17 10:01:57;;;;;;;5.55;5.05;;;25.80;69.60;;;;;;5023898;28;20037;-63
2021/06/17 10:04:23;;;;;;;5.22;4.72;;;25.80;69.70;;;;;;5025713;28;20366;-62
2021/06/17 10:06:51;;;;;;;6.55;5.10;;;25.90;70.10;;;;;;5027831;28;20025;-63
2021/06/17 10:09:17;;;;;;;6.47;5.47;;;25.90;69.60;;;;;;5023688;28;20013;-63
2021/06/17 10:11:43;;;;;;;5.82;5.22;;;25.90;69.40;;;;;;5027579;28;20033;-63
2021/06/17 10:14:10;;;;;;;5.65;4.93;;;25.90;69.00;;;;;;5031829;28;20025;-63
2021/06/17 10:16:42;;;;;;;5.45;4.95;;;25.90;68.70;;;;;;5032093;28;20393;-63
2021/06/17 10:19:19;;;;;;;5.85;5.25;;;26.00;68.10;;;;;;5031147;28;20033;-64
2021/06/17 10:21:46;;;;;;;5.30;4.80;;;26.00;68.70;;;;;;5031601;28;20094;-63
2021/06/17 10:24:17;;;;;;;5.35;4.85;;;26.00;69.00;;;;;;5027380;28;20025;-63
2021/06/17 10:26:57;;;;;;;5.88;4.68;;;26.10;68.60;;;;;;5026561;28;20776;-63
2021/06/17 10:29:29;;;;;;;5.78;4.50;;;26.20;68.20;;;;;;5031076;28;20141;-63
2021/06/17 10:31:56;;;;;;;5.60;5.10;;;26.10;67.80;;;;;;5031687;28;20138;-63
2021/06/17 10:34:25;;;;;;;5.03;4.53;;;26.20;67.60;;;;;;5031969;28;20052;-63
2021/06/17 10:37:10;;;;;;;5.03;4.53;;;26.20;67.00;;;;;;5035986;28;20610;-63
2021/06/17 10:39:42;;;;;;;5.65;4.60;;;26.30;67.70;;;;;;5032258;28;20043;-63
2021/06/17 10:42:13;;;;;;;5.70;4.43;;;26.30;67.70;;;;;;5030790;28;20033;-63
2021/06/17 10:44:57;;;;;;;6.25;5.65;;;26.30;67.80;;;;;;5035468;28;20048;-63
2021/06/17 10:47:39;;;;;;;5.38;4.88;;;26.30;67.50;;;;;;5031845;28;20036;-63
2021/06/17 10:50:06;;;;;;;6.07;5.13;;;26.30;67.70;;;;;;5028472;28;20045;-63
2021/06/17 10:52:32;;;;;;;5.40;4.90;;;26.30;68.10;;;;;;5038519;28;20044;-63
2021/06/17 10:55:00;;;;;;;5.68;5.18;;;26.30;68.00;;;;;;5038623;28;20025;-63
2021/06/17 10:57:53;;;;;;;5.65;5.15;;;26.30;68.30;;;;;;5032142;28;20036;-63
2021/06/17 11:00:22;;;;;;;6.07;5.32;;;26.40;68.00;;;;;;5032665;28;20083;-64
2021/06/17 11:02:58;;;;;;;5.78;5.25;;;26.40;68.00;;;;;;5027276;28;20118;-63
2021/06/17 11:08:17;;;;;;;5.93;5.32;;;26.50;68.30;;;;;;5035047;28;20439;-63
2021/06/17 11:10:47;;;;;;;6.30;5.38;;;26.50;67.90;;;;;;5030610;28;20052;-61
2021/06/17 11:13:31;;;;;;;6.10;5.35;;;26.50;68.00;;;;;;5033245;28;20060;-62
2021/06/17 11:16:00;;;;;;;6.13;5.18;;;26.50;67.60;;;;;;5029714;28;21027;-65
2021/06/17 11:19:01;;;;;;;6.65;6.05;;;26.50;67.50;;;;;;5031217;28;20043;-65
2021/06/17 11:21:27;;;;;;;7.35;5.28;;;26.50;67.60;;;;;;5027966;28;21046;-64
2021/06/17 11:23:56;;;;;;;5.68;4.82;;;26.50;66.50;;;;;;5029785;28;20021;-64
2021/06/17 11:26:35;;;;;;;5.95;4.95;;;26.50;66.00;;;;;;5030262;28;20029;-63
2021/06/17 11:29:01;;;;;;;6.47;5.53;;;26.60;66.30;;;;;;5033511;28;20033;-63
2021/06/17 11:31:40;;;;;;;6.65;5.25;;;26.70;67.00;;;;;;5031496;28;20056;-66
2021/06/17 11:34:11;;;;;;;5.68;5.18;;;26.70;67.00;;;;;;5031585;28;20028;-66
2021/06/17 11:36:54;;;;;;;6.47;4.82;;;26.70;66.60;;;;;;5028562;28;20051;-66
2021/06/17 11:39:28;;;;;;;5.07;4.57;;;26.80;66.30;;;;;;5038096;28;20507;-66
2021/06/17 11:41:57;;;;;;;6.07;5.13;;;26.80;66.60;;;;;;5033327;28;20570;-65
2021/06/17 11:44:26;;;;;;;5.43;4.93;;;26.80;66.90;;;;;;5031148;28;22759;-66
2021/06/17 11:47:10;;;;;;;5.43;4.93;;;26.80;66.60;;;;;;5030510;28;20725;-65
2021/06/17 11:49:44;;;;;;;5.15;4.68;;;26.90;65.40;;;;;;5031697;28;20044;-65
2021/06/17 11:52:11;;;;;;;5.38;4.82;;;26.90;65.30;;;;;;5028212;28;20552;-65
2021/06/17 11:54:38;;;;;;;5.13;4.63;;;26.90;65.50;;;;;;5035716;28;20483;-65
2021/06/17 11:57:04;;;;;;;5.03;4.40;;;26.90;65.30;;;;;;5035397;28;20137;-65
2021/06/17 11:59:37;;;;;;;5.07;4.35;;;26.90;65.20;;;;;;5033551;28;20032;-64
2021/06/17 12:02:07;;;;;;;5.22;4.72;;;26.90;65.50;;;;;;5026563;28;20037;-64
2021/06/17 12:04:40;;;;;;;5.07;4.57;;;26.90;65.20;;;;;;5030612;28;20477;-64
2021/06/17 12:07:07;;;;;;;6.63;5.05;;;26.90;65.20;;;;;;5026059;28;20075;-65
2021/06/17 12:09:33;;;;;;;5.22;4.47;;;26.90;65.10;;;;;;5027086;28;20034;-64
2021/06/17 12:12:16;;;;;;;5.50;4.60;;;26.90;65.30;;;;;;5054834;28;20049;-65
2021/06/17 12:14:47;;;;;;;4.90;4.50;;;26.90;65.30;;;;;;5031995;28;20441;-65
2021/06/17 12:17:25;;;;;;;;;;;26.90;65.70;;;;;;5035434;28;20091;-65
2021/06/17 12:20:01;;;;;;;5.05;4.60;;;26.80;65.50;;;;;;5035199;28;19966;-64
2021/06/17 12:22:27;;;;;;;5.45;4.95;;;26.90;65.80;;;;;;5032866;28;20037;-64
2021/06/17 12:24:54;;;;;;;5.55;4.75;;;26.90;65.80;;;;;;5030636;28;20029;-63
2021/06/17 12:27:20;;;;;;;6.05;5.10;;;26.90;66.00;;;;;;5028838;28;20033;-65
2021/06/17 12:29:47;;;;;;;5.43;4.93;;;26.90;66.20;;;;;;5033541;28;20029;-65
2021/06/17 12:32:13;;;;;;;5.72;4.65;;;26.90;66.50;;;;;;5027865;28;20040;-66
2021/06/17 12:34:44;;;;;;;5.57;4.68;;;26.90;66.10;;;;;;5031669;28;21121;-66
2021/06/17 12:37:12;;;;;;;5.72;5.20;;;26.90;65.40;;;;;;5031159;28;20029;-65
2021/06/17 12:39:39;;;;;;;5.90;4.70;;;26.90;66.00;;;;;;5031129;28;20159;-64
2021/06/17 12:42:13;;;;;;;6.95;4.65;;;27.00;66.70;;;;;;5032397;28;20694;-65
2021/06/17 12:44:43;;;;;;;6.10;5.40;;;26.90;66.50;;;;;;5030724;28;20025;-65
2021/06/17 12:47:17;;;;;;;7.90;5.38;;;27.00;66.70;;;;;;5034350;28;20027;-65
2021/06/17 12:52:33;;;;;;;5.20;4.65;;;27.00;66.30;;;;;;5036036;28;20044;-67
2021/06/17 12:54:59;;;;;;;6.18;5.00;;;27.00;66.40;;;;;;5037589;28;20040;-65
2021/06/17 12:57:27;;;;;;;5.25;4.75;;;27.10;66.60;;;;;;5039141;28;20029;-65
2021/06/17 13:00:02;;;;;;;5.72;4.55;;;27.10;66.40;;;;;;5033807;28;20029;-65
2021/06/17 13:02:28;;;;;;;4.90;4.35;;;27.10;65.10;;;;;;5031989;28;20044;-66
2021/06/17 13:05:23;;;;;;;4.90;4.15;;;27.10;65.40;;;;;;5027389;28;20078;-64
2021/06/17 13:08:03;;;;;;;6.63;5.03;;;27.20;65.30;;;;;;5029816;28;20033;-64